Time;durP1;ratioP1;P1;durP2;ratioP2;P2;SDS_P1;SDS_P2;PMS_P1;PMS_P2;Temp;Humidity;BMP_temperature;BMP_pressure;BME280_temperature;BME280_humidity;BME280_pressure;Samples;Min_cycle;Max_cycle;Signal;HPM_P1;HPM_P2
2022/12/20 00:01:41;;;;;;;59.70;35.50;;;-1.60;99.90;;;;;;5036795;28;20210;-84
2022/12/20 00:04:08;;;;;;;59.30;36.07;;;-1.60;99.90;;;;;;5036850;28;20182;-84
2022/12/20 00:06:34;;;;;;;61.33;36.73;;;-1.60;99.90;;;;;;5036414;28;20206;-85
2022/12/20 00:09:02;;;;;;;60.50;35.83;;;-1.50;99.90;;;;;;5036460;28;20182;-84
2022/12/20 00:11:28;;;;;;;56.90;36.00;;;-1.50;99.90;;;;;;5036497;28;20179;-84
2022/12/20 00:13:54;;;;;;;56.07;35.80;;;-1.50;99.90;;;;;;5036460;28;20265;-84
2022/12/20 00:16:22;;;;;;;59.07;35.40;;;-1.40;99.90;;;;;;5054350;28;20234;-84
2022/12/20 00:18:51;;;;;;;57.40;35.70;;;-1.40;99.90;;;;;;5037136;28;20210;-84
2022/12/20 00:21:17;;;;;;;57.87;34.87;;;-1.30;99.90;;;;;;5036183;28;20174;-84
2022/12/20 00:23:42;;;;;;;61.10;37.37;;;-1.30;99.90;;;;;;5036103;28;20194;-85
2022/12/20 00:26:12;;;;;;;58.60;36.63;;;-1.20;99.90;;;;;;5036057;28;20247;-85
2022/12/20 00:28:39;;;;;;;59.47;36.17;;;-1.20;99.90;;;;;;5035377;28;20178;-84
2022/12/20 00:31:05;;;;;;;56.60;35.50;;;-1.20;99.90;;;;;;5036244;28;20186;-84
2022/12/20 00:33:32;;;;;;;80.17;40.63;;;-1.10;99.90;;;;;;5036363;28;20185;-84
2022/12/20 00:35:58;;;;;;;81.87;39.50;;;-1.10;99.90;;;;;;5036005;28;20206;-85
2022/12/20 00:38:25;;;;;;;73.63;39.23;;;-1.10;99.90;;;;;;5053706;28;20262;-85
2022/12/20 00:41:01;;;;;;;84.70;41.73;;;-1.00;99.90;;;;;;5035961;28;20214;-85
2022/12/20 00:43:27;;;;;;;84.43;42.80;;;-1.00;99.90;;;;;;5035775;28;20233;-85
2022/12/20 00:45:52;;;;;;;82.53;40.90;;;-1.00;99.90;;;;;;5036093;28;20198;-85
2022/12/20 00:48:18;;;;;;;75.73;39.57;;;-1.00;99.90;;;;;;5036112;28;20178;-85
2022/12/20 00:50:43;;;;;;;73.17;39.10;;;-1.00;99.90;;;;;;5035823;28;20185;-85
2022/12/20 00:53:09;;;;;;;64.53;37.20;;;-1.00;99.90;;;;;;5035755;28;20182;-85
2022/12/20 00:55:40;;;;;;;58.60;37.03;;;-1.00;99.90;;;;;;5035970;28;20293;-85
2022/12/20 00:58:15;;;;;;;60.17;36.97;;;-0.90;99.90;;;;;;5036185;28;20174;-84
2022/12/20 01:00:41;;;;;;;59.10;36.70;;;-0.90;99.90;;;;;;5036532;28;20205;-84
2022/12/20 01:03:06;;;;;;;58.90;35.47;;;-0.80;99.90;;;;;;5035667;28;20205;-84
2022/12/20 01:05:32;;;;;;;65.70;38.20;;;-0.80;99.90;;;;;;5035915;28;20195;-85
2022/12/20 01:07:58;;;;;;;69.97;43.33;;;-0.70;99.90;;;;;;5035538;28;20327;-85
2022/12/20 01:10:24;;;;;;;70.40;42.70;;;-0.60;99.90;;;;;;5035501;28;20174;-84
2022/12/20 01:12:49;;;;;;;70.60;42.77;;;-0.60;99.90;;;;;;5036658;28;20189;-84
2022/12/20 01:15:15;;;;;;;74.07;42.30;;;-0.50;99.90;;;;;;5035788;28;20213;-84
2022/12/20 01:17:41;;;;;;;66.27;40.17;;;-0.60;99.90;;;;;;5035460;28;20182;-84
2022/12/20 01:20:07;;;;;;;66.87;38.97;;;-0.70;99.90;;;;;;5036556;28;20173;-84
2022/12/20 01:22:33;;;;;;;66.90;37.93;;;-0.70;99.90;;;;;;5035221;28;20225;-84
2022/12/20 01:24:58;;;;;;;62.80;39.60;;;-0.70;99.90;;;;;;5035339;28;20210;-85
2022/12/20 01:27:24;;;;;;;67.30;40.20;;;-0.50;99.90;;;;;;5053753;28;20182;-84
2022/12/20 01:29:50;;;;;;;64.90;39.33;;;-0.50;99.90;;;;;;5053261;28;20181;-84
2022/12/20 01:32:16;;;;;;;70.00;41.63;;;-0.40;99.90;;;;;;5035793;28;20592;-84
2022/12/20 01:34:41;;;;;;;67.33;39.70;;;-0.40;99.90;;;;;;5035923;28;20227;-85
2022/12/20 01:37:07;;;;;;;66.30;40.20;;;-0.50;99.90;;;;;;5035894;28;20193;-84
2022/12/20 01:39:32;;;;;;;61.17;36.90;;;-0.50;99.90;;;;;;5035613;28;20189;-85
2022/12/20 01:41:58;;;;;;;61.07;39.10;;;-0.40;99.90;;;;;;5038755;28;20316;-85
2022/12/20 01:44:23;;;;;;;66.40;39.17;;;-0.40;99.90;;;;;;5039400;28;20189;-85
2022/12/20 01:46:50;;;;;;;64.40;40.50;;;-0.30;99.90;;;;;;5039504;28;20177;-85
2022/12/20 01:49:19;;;;;;;70.37;40.63;;;-0.40;99.90;;;;;;5039039;28;20186;-84
2022/12/20 01:51:57;;;;;;;60.87;38.67;;;-0.30;99.90;;;;;;5039015;28;20178;-84
2022/12/20 01:54:47;;;;;;;57.00;37.07;;;-0.30;99.90;;;;;;5039019;28;20184;-84
2022/12/20 01:57:19;;;;;;;60.03;38.57;;;-0.30;99.90;;;;;;5056994;28;20530;-84
2022/12/20 01:59:47;;;;;;;59.20;37.87;;;-0.30;99.90;;;;;;5039847;28;20166;-84
2022/12/20 02:02:13;;;;;;;61.80;38.50;;;-0.20;99.90;;;;;;5038818;28;20212;-84
2022/12/20 02:04:39;;;;;;;57.07;35.90;;;-0.20;99.90;;;;;;5039078;28;20293;-85
2022/12/20 02:07:06;;;;;;;57.63;36.10;;;-0.20;99.90;;;;;;5039576;28;20182;-84
2022/12/20 02:09:35;;;;;;;56.27;36.20;;;-0.20;99.90;;;;;;5039450;28;20182;-84
2022/12/20 02:12:11;;;;;;;56.43;36.23;;;-0.20;99.90;;;;;;5039213;28;20205;-84
2022/12/20 02:14:42;;;;;;;54.33;35.60;;;-0.30;99.90;;;;;;5039595;28;20194;-85
2022/12/20 02:17:27;;;;;;;53.23;33.37;;;-0.30;99.90;;;;;;5038740;28;20178;-85
2022/12/20 02:20:20;;;;;;;51.40;33.20;;;-0.20;99.90;;;;;;5038539;28;20181;-84
2022/12/20 02:23:15;;;;;;;50.30;32.50;;;-0.10;99.90;;;;;;5038353;28;20255;-84
2022/12/20 02:26:01;;;;;;;52.10;33.77;;;-0.10;99.90;;;;;;5038783;28;20206;-85
2022/12/20 02:28:47;;;;;;;50.50;32.60;;;-0.10;99.90;;;;;;5039385;28;20170;-85
2022/12/20 02:31:18;;;;;;;49.10;31.90;;;-0.10;99.90;;;;;;5038372;28;20216;-85
2022/12/20 02:33:47;;;;;;;49.77;33.10;;;-0.20;99.90;;;;;;5039094;28;20559;-84
2022/12/20 02:36:17;;;;;;;52.13;33.63;;;-0.10;99.90;;;;;;5038267;28;20661;-85
2022/12/20 02:38:43;;;;;;;55.07;34.03;;;-0.20;99.90;;;;;;5038279;28;20183;-85
2022/12/20 02:41:28;;;;;;;48.83;32.60;;;-0.20;99.90;;;;;;5038160;28;20213;-85
2022/12/20 02:46:48;;;;;;;58.83;36.33;;;-0.40;99.90;;;;;;5056390;28;20165;-85
2022/12/20 02:49:20;;;;;;;60.87;37.07;;;-0.40;99.90;;;;;;5038285;28;20178;-85
2022/12/20 02:51:48;;;;;;;58.37;35.37;;;-0.50;99.90;;;;;;5037132;28;20170;-85
2022/12/20 02:54:15;;;;;;;57.90;35.87;;;-0.50;99.90;;;;;;5055868;28;20182;-85
2022/12/20 02:56:47;;;;;;;57.37;37.23;;;-0.50;99.90;;;;;;5038624;28;20189;-84
2022/12/20 02:59:23;;;;;;;57.10;35.67;;;-0.50;99.90;;;;;;5038715;28;20193;-84
2022/12/20 03:01:52;;;;;;;58.73;35.80;;;-0.50;99.90;;;;;;5055598;28;20201;-84
2022/12/20 03:04:21;;;;;;;58.57;35.80;;;-0.50;99.90;;;;;;5055626;28;20185;-85
2022/12/20 03:07:03;;;;;;;57.50;35.30;;;-0.50;99.90;;;;;;5037913;28;20563;-85
2022/12/20 03:09:34;;;;;;;57.07;35.67;;;-0.50;99.90;;;;;;5037950;28;20244;-85
2022/12/20 03:12:00;;;;;;;55.87;34.13;;;-0.40;99.90;;;;;;5038439;28;20182;-84
2022/12/20 03:14:26;;;;;;;53.63;35.30;;;-0.40;99.90;;;;;;5037382;28;20181;-85
2022/12/20 03:16:52;;;;;;;54.03;34.13;;;-0.30;99.90;;;;;;5037558;28;20205;-85
2022/12/20 03:19:18;;;;;;;53.30;34.60;;;-0.30;99.90;;;;;;5038299;28;20194;-84
2022/12/20 03:21:43;;;;;;;59.47;36.77;;;-0.30;99.90;;;;;;5055121;28;20319;-84
2022/12/20 03:24:10;;;;;;;60.53;39.43;;;-0.30;99.90;;;;;;5037227;28;20216;-84
2022/12/20 03:26:36;;;;;;;60.23;38.07;;;-0.30;99.90;;;;;;5037250;28;20198;-85
2022/12/20 03:29:02;;;;;;;56.50;36.17;;;-0.30;99.90;;;;;;5037209;28;20170;-85
2022/12/20 03:31:28;;;;;;;55.87;35.90;;;-0.40;99.90;;;;;;5037215;28;20175;-85
2022/12/20 03:33:54;;;;;;;58.93;36.13;;;-0.40;99.90;;;;;;5037775;28;20175;-84
2022/12/20 03:36:22;;;;;;;56.20;35.33;;;-0.40;99.90;;;;;;5037210;28;20659;-84
2022/12/20 03:38:52;;;;;;;54.67;35.37;;;-0.40;99.90;;;;;;5037043;28;20174;-84
2022/12/20 03:41:20;;;;;;;57.83;36.60;;;-0.40;99.90;;;;;;5037031;28;20171;-84
2022/12/20 03:43:45;;;;;;;55.17;35.03;;;-0.50;99.90;;;;;;5037874;28;20201;-85
2022/12/20 03:46:11;;;;;;;52.63;32.90;;;-0.40;99.90;;;;;;5037192;28;20194;-84
2022/12/20 03:48:37;;;;;;;51.40;33.77;;;-0.40;99.90;;;;;;5037212;28;20185;-84
2022/12/20 03:51:02;;;;;;;50.43;33.33;;;-0.30;99.90;;;;;;5037636;28;20217;-84
2022/12/20 03:53:28;;;;;;;51.63;32.57;;;-0.30;99.90;;;;;;5037398;28;20170;-84
2022/12/20 03:55:53;;;;;;;55.90;36.53;;;-0.20;99.90;;;;;;5036629;28;20190;-84
2022/12/20 03:58:19;;;;;;;49.63;33.70;;;-0.20;99.90;;;;;;5036971;28;20181;-84
2022/12/20 04:00:45;;;;;;;50.20;33.83;;;-0.20;99.90;;;;;;5037533;28;20617;-84
2022/12/20 04:03:10;;;;;;;51.70;34.23;;;-0.20;99.90;;;;;;5036971;28;20210;-84
2022/12/20 04:05:36;;;;;;;53.37;36.27;;;-0.20;99.90;;;;;;5036555;28;20243;-85
2022/12/20 04:08:01;;;;;;;55.17;38.47;;;-0.30;99.90;;;;;;5036833;28;20236;-85
2022/12/20 04:10:27;;;;;;;59.37;41.83;;;-0.30;99.90;;;;;;5037302;28;20178;-85
2022/12/20 04:12:52;;;;;;;65.43;42.27;;;-0.20;99.90;;;;;;5037485;28;20189;-85
2022/12/20 04:15:18;;;;;;;60.90;36.97;;;-0.20;99.90;;;;;;5036308;28;20297;-85
2022/12/20 04:17:44;;;;;;;55.80;37.00;;;-0.30;99.90;;;;;;5036396;28;20213;-84
2022/12/20 04:20:19;;;;;;;58.50;37.03;;;-0.30;99.90;;;;;;5054367;28;20178;-84
2022/12/20 04:22:47;;;;;;;56.67;36.80;;;-0.30;99.90;;;;;;5036085;28;20228;-84
2022/12/20 04:25:26;;;;;;;49.53;33.10;;;-0.30;99.90;;;;;;5036172;28;20679;-85
2022/12/20 04:27:52;;;;;;;53.30;34.47;;;-0.20;99.90;;;;;;5037019;28;20261;-84
2022/12/20 04:30:18;;;;;;;60.97;38.03;;;-0.20;99.90;;;;;;5036963;28;20209;-84
2022/12/20 04:32:43;;;;;;;58.30;36.60;;;-0.30;99.90;;;;;;5036366;28;20182;-84
2022/12/20 04:35:09;;;;;;;52.80;34.67;;;-0.30;99.90;;;;;;5036786;28;20241;-85
2022/12/20 04:37:35;;;;;;;53.47;34.77;;;-0.30;99.90;;;;;;5036108;28;20182;-85
2022/12/20 04:40:00;;;;;;;74.63;57.73;;;-0.30;99.90;;;;;;5035891;28;20174;-85
2022/12/20 04:42:26;;;;;;;58.63;37.10;;;-0.30;99.90;;;;;;5035747;28;20206;-85
2022/12/20 04:44:51;;;;;;;58.27;38.93;;;-0.20;99.90;;;;;;5035904;28;20289;-85
2022/12/20 04:47:17;;;;;;;58.83;37.97;;;-0.20;99.90;;;;;;5036486;28;20178;-85
2022/12/20 04:49:42;;;;;;;52.10;34.30;;;-0.20;99.90;;;;;;5053809;28;20189;-85
2022/12/20 04:54:52;;;;;;;64.10;44.60;;;-0.20;99.90;;;;;;5053732;28;20204;-85
2022/12/20 04:57:17;;;;;;;59.10;39.97;;;-0.20;99.90;;;;;;5036837;28;20174;-85
2022/12/20 04:59:43;;;;;;;58.53;40.87;;;-0.30;99.90;;;;;;5053652;28;20178;-85
2022/12/20 05:02:08;;;;;;;58.50;41.93;;;-0.30;99.90;;;;;;5035930;28;20201;-85
2022/12/20 05:04:34;;;;;;;53.77;35.17;;;-0.40;99.90;;;;;;5035608;28;20200;-85
2022/12/20 05:07:00;;;;;;;52.60;33.93;;;-0.30;99.90;;;;;;5035459;28;20202;-85
2022/12/20 05:09:25;;;;;;;48.40;32.80;;;-0.30;99.90;;;;;;5035585;28;20174;-85
2022/12/20 05:11:51;;;;;;;54.40;33.67;;;-0.30;99.90;;;;;;5035494;28;20235;-85
2022/12/20 05:14:16;;;;;;;59.03;38.63;;;-0.30;99.90;;;;;;5053214;28;20299;-85
2022/12/20 05:16:42;;;;;;;57.77;39.60;;;-0.40;99.90;;;;;;5035861;28;20213;-84
2022/12/20 05:19:07;;;;;;;59.30;39.33;;;-0.30;99.90;;;;;;5035351;28;20194;-84
2022/12/20 05:27:01;;;;;;;62.40;37.87;;;-0.40;99.90;;;;;;5053789;28;20204;-84
2022/12/20 05:29:27;;;;;;;55.43;37.47;;;-0.40;99.90;;;;;;5035716;28;20206;-85
2022/12/20 05:31:52;;;;;;;54.93;36.17;;;-0.40;99.90;;;;;;5035334;28;20189;-84
2022/12/20 05:34:18;;;;;;;66.00;38.43;;;-0.20;99.90;;;;;;5035236;28;20174;-85
2022/12/20 05:36:43;;;;;;;59.43;37.00;;;-0.20;99.90;;;;;;5035266;28;20182;-84
2022/12/20 05:39:10;;;;;;;58.30;37.47;;;-0.20;99.90;;;;;;5035631;28;20712;-84
2022/12/20 05:41:36;;;;;;;59.77;36.93;;;-0.10;99.90;;;;;;5036036;28;20182;-83
2022/12/20 05:44:02;;;;;;;57.50;37.40;;;-0.10;99.90;;;;;;5035269;28;20177;-84
2022/12/20 05:46:28;;;;;;;55.90;36.67;;;-0.10;99.90;;;;;;5035276;28;20232;-84
2022/12/20 05:48:53;;;;;;;53.77;36.37;;;-0.10;99.90;;;;;;5053347;28;20322;-84
2022/12/20 05:51:19;;;;;;;52.00;34.40;;;-0.10;99.90;;;;;;5036039;28;20179;-84
2022/12/20 05:53:44;;;;;;;53.40;34.33;;;0.00;99.90;;;;;;5053046;28;20179;-84
2022/12/20 05:56:10;;;;;;;56.33;36.47;;;-0.10;99.90;;;;;;5035111;28;20202;-85
2022/12/20 05:58:36;;;;;;;57.47;36.30;;;0.00;99.90;;;;;;5036024;28;20182;-85
2022/12/20 06:01:04;;;;;;;90.93;63.13;;;-0.10;99.90;;;;;;5035208;28;20200;-84
2022/12/20 06:03:30;;;;;;;65.53;45.53;;;0.00;99.90;;;;;;5035068;28;20208;-85
2022/12/20 06:05:55;;;;;;;56.87;38.97;;;0.00;99.90;;;;;;5035440;28;20190;-84
2022/12/20 06:08:22;;;;;;;67.37;46.03;;;0.00;99.90;;;;;;5035208;28;20201;-85
2022/12/20 06:10:50;;;;;;;68.13;47.27;;;0.00;99.90;;;;;;5036137;28;20181;-85
2022/12/20 06:13:17;;;;;;;64.53;41.53;;;0.10;99.90;;;;;;5036121;28;20218;-85
2022/12/20 06:15:50;;;;;;;53.27;36.00;;;0.20;99.90;;;;;;5036073;28;20198;-85
2022/12/20 06:18:15;;;;;;;53.33;36.27;;;0.20;99.90;;;;;;5036445;28;20190;-85
2022/12/20 06:20:41;;;;;;;51.33;35.60;;;0.20;99.90;;;;;;5036210;28;20252;-85
2022/12/20 06:23:08;;;;;;;59.00;37.20;;;0.20;99.90;;;;;;5036099;28;20268;-85
2022/12/20 06:25:34;;;;;;;58.73;36.77;;;0.20;99.90;;;;;;5035984;28;20194;-85
2022/12/20 06:28:00;;;;;;;59.57;37.57;;;0.10;99.90;;;;;;5037343;28;20181;-84
2022/12/20 06:30:25;;;;;;;51.47;33.07;;;0.10;99.90;;;;;;5038544;28;20242;-84
2022/12/20 06:32:51;;;;;;;63.23;35.73;;;0.20;99.90;;;;;;5056165;28;20251;-84
2022/12/20 06:35:17;;;;;;;53.33;34.93;;;0.10;99.90;;;;;;5038566;28;20194;-85
2022/12/20 06:37:42;;;;;;;55.37;35.57;;;0.10;99.90;;;;;;5038565;28;20630;-85
2022/12/20 06:40:10;;;;;;;54.53;37.43;;;0.20;99.90;;;;;;5038302;28;20267;-84
2022/12/20 06:42:36;;;;;;;90.63;59.67;;;0.10;99.90;;;;;;5038582;28;20217;-84
2022/12/20 06:45:02;;;;;;;98.70;65.13;;;0.20;99.90;;;;;;5038832;28;20225;-85
2022/12/20 06:47:27;;;;;;;56.37;38.37;;;0.20;99.90;;;;;;5038610;28;20189;-84
2022/12/20 06:49:53;;;;;;;59.93;39.00;;;0.20;99.90;;;;;;5038075;28;20170;-84
2022/12/20 06:52:43;;;;;;;65.00;42.37;;;0.20;99.90;;;;;;5038559;28;20215;-84
2022/12/20 06:55:12;;;;;;;66.53;43.43;;;0.20;99.90;;;;;;5037875;28;20232;-85
2022/12/20 06:57:54;;;;;;;65.70;41.60;;;0.20;99.90;;;;;;5037982;28;20637;-85
2022/12/20 07:00:20;;;;;;;64.90;43.03;;;0.10;99.90;;;;;;5038732;28;20178;-85
2022/12/20 07:02:45;;;;;;;62.77;41.17;;;0.10;99.90;;;;;;5038137;28;20202;-84
2022/12/20 07:05:11;;;;;;;57.27;37.73;;;0.00;99.90;;;;;;5038112;28;20195;-84
2022/12/20 07:07:38;;;;;;;52.10;36.17;;;0.00;99.90;;;;;;5037992;28;20641;-84
2022/12/20 07:10:04;;;;;;;66.07;39.87;;;0.00;99.90;;;;;;5037873;28;20162;-84
2022/12/20 07:12:29;;;;;;;61.20;40.07;;;0.00;99.90;;;;;;5038132;28;20186;-85
2022/12/20 07:14:55;;;;;;;58.97;39.27;;;-0.10;99.90;;;;;;5037281;28;20217;-83
2022/12/20 07:17:20;;;;;;;55.50;37.87;;;-0.10;99.90;;;;;;5038162;28;20217;-84
2022/12/20 07:19:46;;;;;;;59.40;38.53;;;-0.20;99.90;;;;;;5038432;28;20185;-84
2022/12/20 07:22:11;;;;;;;61.67;38.43;;;-0.20;99.90;;;;;;5037395;28;20209;-84
2022/12/20 07:24:38;;;;;;;58.33;38.10;;;-0.20;99.90;;;;;;5037330;28;20217;-85
2022/12/20 07:27:03;;;;;;;57.57;38.30;;;-0.20;99.90;;;;;;5037609;28;20178;-84
2022/12/20 07:29:29;;;;;;;55.93;35.73;;;-0.20;99.90;;;;;;5037271;28;20179;-85
2022/12/20 07:31:54;;;;;;;52.60;35.23;;;-0.30;99.90;;;;;;5048292;28;20276;-85
2022/12/20 07:34:20;;;;;;;56.00;37.43;;;-0.30;99.90;;;;;;5037171;28;20178;-85
2022/12/20 07:36:46;;;;;;;56.33;37.73;;;-0.20;99.90;;;;;;5054861;28;20173;-84
2022/12/20 07:39:12;;;;;;;59.67;38.50;;;-0.20;99.90;;;;;;5028952;28;20185;-85
2022/12/20 07:41:38;;;;;;;56.43;37.50;;;-0.20;99.90;;;;;;5018890;28;20187;-84
2022/12/20 07:44:03;;;;;;;68.40;41.47;;;-0.20;99.90;;;;;;5018258;28;20183;-84
2022/12/20 07:46:29;;;;;;;64.13;41.07;;;-0.10;99.90;;;;;;5017127;28;20198;-85
2022/12/20 07:48:55;;;;;;;55.37;36.23;;;-0.10;99.90;;;;;;5017459;28;20179;-85
2022/12/20 07:51:26;;;;;;;56.33;34.33;;;-0.10;99.90;;;;;;5017915;28;20171;-84
2022/12/20 07:54:03;;;;;;;59.07;37.33;;;0.10;99.90;;;;;;5016719;28;20171;-85
2022/12/20 07:56:31;;;;;;;59.63;37.23;;;0.10;99.90;;;;;;5017187;28;20716;-85
2022/12/20 07:58:59;;;;;;;65.70;40.20;;;0.10;99.90;;;;;;5016936;28;20665;-85
2022/12/20 08:01:29;;;;;;;67.20;39.13;;;0.10;99.90;;;;;;5017162;28;20194;-84
2022/12/20 08:04:06;;;;;;;61.67;38.87;;;0.20;99.90;;;;;;5016832;28;20616;-85
2022/12/20 08:06:33;;;;;;;59.90;37.93;;;0.10;99.90;;;;;;5016692;28;20209;-85
2022/12/20 08:09:03;;;;;;;65.43;37.70;;;0.10;99.90;;;;;;5016895;28;20175;-84
2022/12/20 08:11:30;;;;;;;57.23;36.90;;;0.10;99.90;;;;;;5016936;28;20198;-85
2022/12/20 08:13:56;;;;;;;59.83;38.37;;;0.20;99.90;;;;;;5016915;28;20186;-86
2022/12/20 08:16:26;;;;;;;57.67;37.70;;;0.30;99.90;;;;;;5017171;28;20198;-85
2022/12/20 08:18:53;;;;;;;56.70;36.80;;;0.40;99.90;;;;;;5034710;28;20202;-85
2022/12/20 08:21:19;;;;;;;68.50;43.83;;;0.40;99.90;;;;;;5017539;28;20171;-85
2022/12/20 08:23:44;;;;;;;61.83;43.73;;;0.40;99.90;;;;;;5015527;28;20264;-85
2022/12/20 08:26:10;;;;;;;77.33;49.67;;;0.50;99.90;;;;;;5016295;28;20209;-85
2022/12/20 08:28:37;;;;;;;53.20;36.33;;;0.60;99.90;;;;;;5016039;28;20265;-85
2022/12/20 08:31:04;;;;;;;63.27;40.77;;;0.60;99.90;;;;;;5016340;28;20171;-85
2022/12/20 08:33:32;;;;;;;63.27;42.27;;;0.60;99.90;;;;;;5016266;28;20175;-85
2022/12/20 08:36:01;;;;;;;62.27;40.90;;;0.60;99.90;;;;;;5015935;28;20203;-85
2022/12/20 08:38:30;;;;;;;60.23;40.17;;;0.60;99.90;;;;;;5016105;28;20175;-85
2022/12/20 08:41:09;;;;;;;69.07;45.57;;;0.80;99.90;;;;;;5034070;28;20174;-85
2022/12/20 08:43:36;;;;;;;61.90;41.80;;;0.80;99.90;;;;;;5016191;28;20223;-84
2022/12/20 08:46:03;;;;;;;61.20;41.67;;;0.90;99.90;;;;;;5016613;28;20557;-85
2022/12/20 08:48:31;;;;;;;66.10;45.37;;;1.00;99.90;;;;;;5016174;28;20681;-85
2022/12/20 08:50:59;;;;;;;66.23;42.77;;;1.00;99.90;;;;;;5015517;28;20174;-84
2022/12/20 08:53:26;;;;;;;63.07;43.93;;;1.00;99.90;;;;;;5016541;28;20179;-84
2022/12/20 08:55:53;;;;;;;59.47;40.77;;;1.00;99.90;;;;;;5015948;28;20202;-84
2022/12/20 08:58:19;;;;;;;57.87;42.73;;;1.00;99.90;;;;;;5016066;28;20175;-85
2022/12/20 09:00:45;;;;;;;56.10;39.90;;;1.10;99.90;;;;;;5016355;28;20190;-85
2022/12/20 09:03:12;;;;;;;54.93;37.93;;;1.20;99.90;;;;;;5015906;28;20625;-85
2022/12/20 09:05:47;;;;;;;50.87;36.23;;;1.30;99.90;;;;;;5015862;28;20194;-85
2022/12/20 09:08:14;;;;;;;50.30;35.27;;;1.40;99.90;;;;;;5015872;28;20182;-85
2022/12/20 09:10:40;;;;;;;47.87;34.83;;;1.50;99.90;;;;;;5015911;28;20186;-85
2022/12/20 09:13:06;;;;;;;50.97;35.13;;;1.50;99.90;;;;;;5015975;28;20221;-85
2022/12/20 09:15:34;;;;;;;48.37;34.80;;;1.60;99.90;;;;;;5016029;28;20681;-85
2022/12/20 09:17:59;;;;;;;47.40;32.20;;;1.70;99.90;;;;;;5015889;28;20253;-85
2022/12/20 09:20:26;;;;;;;44.33;31.23;;;1.70;99.90;;;;;;5015690;28;20661;-85
2022/12/20 09:22:51;;;;;;;43.10;30.30;;;1.80;99.90;;;;;;5015537;28;20265;-85
2022/12/20 09:25:17;;;;;;;41.87;29.67;;;1.80;99.90;;;;;;5016282;28;20217;-85
2022/12/20 09:27:43;;;;;;;41.00;30.10;;;1.90;99.90;;;;;;5015901;28;20174;-85
2022/12/20 09:30:10;;;;;;;43.07;31.33;;;1.90;99.90;;;;;;5016489;28;20266;-85
2022/12/20 09:32:36;;;;;;;41.53;29.97;;;1.90;99.90;;;;;;5015904;28;20179;-85
2022/12/20 09:35:02;;;;;;;41.03;30.23;;;2.00;99.90;;;;;;5016189;28;20203;-85
2022/12/20 09:37:32;;;;;;;36.90;28.63;;;2.10;99.90;;;;;;5015626;28;20181;-85
2022/12/20 09:39:58;;;;;;;41.90;30.53;;;2.20;99.90;;;;;;5033286;28;20182;-85
2022/12/20 09:42:27;;;;;;;41.60;30.50;;;2.20;99.90;;;;;;5033722;28;20724;-84
2022/12/20 09:45:02;;;;;;;43.50;31.47;;;2.20;99.90;;;;;;5015468;28;20233;-85
2022/12/20 09:47:28;;;;;;;44.97;32.20;;;2.20;99.90;;;;;;5016475;28;20327;-85
2022/12/20 09:49:56;;;;;;;43.10;31.80;;;2.20;99.90;;;;;;5015383;28;20645;-85
2022/12/20 09:52:27;;;;;;;44.53;32.47;;;2.20;99.90;;;;;;5015487;28;20179;-85
2022/12/20 09:55:05;;;;;;;45.30;31.57;;;2.20;99.90;;;;;;5015435;28;20677;-84
2022/12/20 09:57:57;;;;;;;41.03;29.87;;;2.20;99.90;;;;;;5016343;28;20171;-85
2022/12/20 10:00:23;;;;;;;42.60;30.63;;;2.20;99.90;;;;;;5016223;28;20206;-85
2022/12/20 10:02:49;;;;;;;43.17;31.07;;;2.30;99.90;;;;;;5018780;28;20199;-84
2022/12/20 10:05:26;;;;;;;48.10;31.40;;;2.20;99.90;;;;;;5019517;28;20190;-85
2022/12/20 10:08:22;;;;;;;36.77;28.07;;;2.20;99.90;;;;;;5019140;28;20170;-85
2022/12/20 10:10:56;;;;;;;46.77;32.10;;;2.30;99.90;;;;;;4979512;28;20197;-85
2022/12/20 10:14:05;;;;;;;40.33;29.33;;;2.30;99.90;;;;;;5019000;28;20182;-85
2022/12/20 10:16:42;;;;;;;43.73;31.07;;;2.30;99.90;;;;;;5035847;28;20210;-85
2022/12/20 10:19:54;;;;;;;43.73;31.07;;;2.30;99.90;;;;;;5018961;28;20171;-85
2022/12/20 10:22:28;;;;;;;43.03;32.03;;;2.40;99.90;;;;;;5020223;28;20297;-84
2022/12/20 10:25:01;;;;;;;43.00;32.23;;;2.40;99.90;;;;;;5018488;28;20214;-85
2022/12/20 10:27:27;;;;;;;48.13;33.03;;;2.40;99.90;;;;;;5019489;28;20183;-85
2022/12/20 10:29:53;;;;;;;44.93;31.43;;;2.40;99.90;;;;;;5019431;28;20167;-85
2022/12/20 10:32:22;;;;;;;50.13;31.07;;;2.40;99.90;;;;;;5018730;28;20175;-85
2022/12/20 10:35:00;;;;;;;44.00;31.73;;;2.50;99.90;;;;;;5018752;28;20286;-85
2022/12/20 10:37:25;;;;;;;43.13;30.73;;;2.40;99.90;;;;;;5019433;28;20190;-85
2022/12/20 10:39:51;;;;;;;43.53;30.97;;;2.50;99.90;;;;;;5018501;28;20167;-85
2022/12/20 10:42:39;;;;;;;46.90;32.20;;;2.60;99.90;;;;;;5019385;28;20337;-85
2022/12/20 10:45:28;;;;;;;40.37;28.63;;;2.60;99.90;;;;;;5037123;28;20222;-85
2022/12/20 10:47:58;;;;;;;41.17;29.97;;;2.60;99.90;;;;;;5006421;28;20198;-84
2022/12/20 10:50:24;;;;;;;40.67;29.37;;;2.70;99.90;;;;;;5019237;28;20527;-85
2022/12/20 10:53:10;;;;;;;45.93;33.00;;;2.70;99.90;;;;;;5036164;28;20193;-85
2022/12/20 10:55:38;;;;;;;51.43;32.50;;;2.70;99.90;;;;;;5018785;28;20206;-84
2022/12/20 10:58:29;;;;;;;45.87;33.30;;;2.70;99.90;;;;;;5035907;28;20183;-84
2022/12/20 11:01:16;;;;;;;39.63;29.77;;;2.60;99.90;;;;;;5018248;28;20182;-84
2022/12/20 11:03:52;;;;;;;43.57;31.43;;;2.70;99.90;;;;;;5017932;28;20217;-84
2022/12/20 11:06:20;;;;;;;39.60;29.50;;;2.80;99.90;;;;;;5035609;28;20290;-84
2022/12/20 11:08:47;;;;;;;45.23;31.03;;;2.80;99.90;;;;;;5018012;28;20175;-84
2022/12/20 11:11:22;;;;;;;37.47;28.00;;;2.70;99.90;;;;;;5018786;28;20190;-84
2022/12/20 11:13:50;;;;;;;40.47;29.37;;;2.60;99.90;;;;;;5017144;28;20174;-84
2022/12/20 11:16:38;;;;;;;48.93;35.93;;;2.50;99.90;;;;;;5018166;28;20202;-85
2022/12/20 11:19:24;;;;;;;46.03;31.47;;;2.40;99.90;;;;;;5018757;28;20199;-85
2022/12/20 11:22:19;;;;;;;39.63;29.70;;;2.50;99.90;;;;;;5003891;28;20218;-85
2022/12/20 11:25:14;;;;;;;48.37;34.80;;;2.40;99.90;;;;;;5017421;28;20214;-84
2022/12/20 11:27:58;;;;;;;46.87;33.47;;;2.30;99.90;;;;;;5010449;28;20187;-85
2022/12/20 11:31:00;;;;;;;45.27;30.87;;;2.20;99.90;;;;;;5017896;28;20178;-85
2022/12/20 11:33:47;;;;;;;50.70;33.23;;;2.30;99.90;;;;;;5016789;28;20187;-85
2022/12/20 11:36:31;;;;;;;45.10;32.10;;;2.20;99.90;;;;;;5017458;28;20194;-85
2022/12/20 11:39:17;;;;;;;42.30;31.27;;;2.30;99.90;;;;;;5035028;28;20246;-85
2022/12/20 11:41:54;;;;;;;45.47;31.73;;;2.40;99.90;;;;;;5017280;28;20221;-84
2022/12/20 11:44:34;;;;;;;42.23;29.77;;;2.50;99.90;;;;;;5018250;28;20170;-84
2022/12/20 11:47:20;;;;;;;39.23;29.80;;;2.60;99.90;;;;;;5035176;28;20178;-85
2022/12/20 11:50:31;;;;;;;39.23;29.33;;;2.50;99.90;;;;;;5017284;28;20171;-85
2022/12/20 11:53:36;;;;;;;41.67;30.07;;;2.70;99.90;;;;;;5011407;28;20274;-85
2022/12/20 11:56:17;;;;;;;39.83;29.47;;;2.60;99.90;;;;;;5017329;28;20281;-85
2022/12/20 11:58:50;;;;;;;38.03;29.13;;;2.50;99.90;;;;;;5017367;28;20171;-85
2022/12/20 12:01:20;;;;;;;44.13;30.83;;;2.50;99.90;;;;;;5017063;28;20254;-85
2022/12/20 12:04:15;;;;;;;41.33;30.80;;;2.50;99.90;;;;;;5017823;28;20207;-85
2022/12/20 12:06:50;;;;;;;46.23;32.90;;;2.40;99.90;;;;;;5016790;28;20205;-85
2022/12/20 12:09:25;;;;;;;47.47;32.67;;;2.40;99.90;;;;;;5017462;28;20162;-85
2022/12/20 12:12:04;;;;;;;44.50;33.07;;;2.40;99.90;;;;;;5017899;28;20237;-85
2022/12/20 12:14:41;;;;;;;46.43;32.73;;;2.40;99.90;;;;;;5016588;28;20163;-85
2022/12/20 12:17:16;;;;;;;46.27;32.30;;;2.30;99.90;;;;;;5034699;28;20175;-85
2022/12/20 12:19:47;;;;;;;47.40;33.10;;;2.30;99.90;;;;;;5016695;28;20185;-84
2022/12/20 12:22:18;;;;;;;46.97;33.80;;;2.20;99.90;;;;;;5017326;28;20206;-85
2022/12/20 12:24:51;;;;;;;48.07;32.70;;;2.30;99.90;;;;;;5016507;28;20215;-85
2022/12/20 12:27:25;;;;;;;46.40;32.57;;;2.30;99.90;;;;;;5016510;28;20242;-85
2022/12/20 12:29:53;;;;;;;47.57;33.50;;;2.20;99.90;;;;;;5016334;28;20526;-85
2022/12/20 12:32:26;;;;;;;47.83;32.23;;;2.20;99.90;;;;;;5016435;28;20190;-85
2022/12/20 12:35:22;;;;;;;50.30;34.17;;;2.20;99.90;;;;;;5017030;28;20206;-85
2022/12/20 12:38:23;;;;;;;53.67;36.17;;;2.20;99.90;;;;;;5016876;28;20195;-85
2022/12/20 12:41:06;;;;;;;51.73;35.40;;;2.40;99.90;;;;;;4937961;29;20177;-85
2022/12/20 12:43:56;;;;;;;47.10;34.53;;;2.40;99.90;;;;;;5009500;28;20226;-85
2022/12/20 12:46:29;;;;;;;51.63;34.50;;;2.50;99.90;;;;;;5034101;28;20191;-85
2022/12/20 12:49:13;;;;;;;55.47;37.03;;;2.60;99.90;;;;;;5034172;28;20189;-85
2022/12/20 12:51:43;;;;;;;50.30;34.67;;;2.50;99.90;;;;;;5016160;28;20178;-85
2022/12/20 12:54:21;;;;;;;55.90;37.87;;;2.60;99.90;;;;;;5016969;28;20511;-85
2022/12/20 12:56:49;;;;;;;50.83;35.23;;;2.60;99.90;;;;;;5015965;28;20205;-86
2022/12/20 12:59:42;;;;;;;52.70;36.47;;;2.60;99.90;;;;;;5034028;28;20168;-86